Pagina principale
METAR-TAF:

METAR-TAF

Aeroporti :

Aeroporto di N'Djamena-Hassan Djamous

N'Djamena, Ciad

latitudine: 12-08N, longitudine: 015-02E, altezza: 295 m

Osservazione

Il bollettino è stato emesso 1 ora e 48 minuti fa, alle 17:00 UTC
Vento 5 kt da sud
Temperature 34°C
Umidità 41%
Pressione 1006 hPa
Visibilità 10 km o più
nessuna nube inferiore a 1500 m e nessun cumulonembo

METAR: FTTJ 251700Z 19005KT CAVOK 34/19 Q1006 NOSIG

Ora: 19:48 (18:48 UTC)

Previsione

Il bollettino è stato emesso 1 ora e 48 minuti fa, alle 17:00 UTC
Previsione valida dal 25 alle 18 UTC al 26 alle 24 UTC
Vento 8 kt da sud
Visibilità 10 km o più
nessuna nube inferiore a 1500 m e nessun cumulonembo
Probabilità 30% :
Temporaneamente
dal 26 alle 15 UTC al 26 alle 19 UTC
temporale

TAF: FTTJ 251700Z 2518/2624 18008KT CAVOK PROB30 TEMPO 2615/2619 TS

Osservazioni e previsioni meteorologiche di più di 4000 aeroporti (messaggi METAR e TAF).

Le stazioni disponibili sono rappresentate dai dischi gialli e rossi sulla carta.

Puntare il mouse per vedere il nome della stazione.

Clicca sopra per visualizzare le osservazioni e previsioni meteorologiche.

Per cambiare la mappa : fare clic sui pulsanti verdi con una croce nera per ingrandire, il pulsante verde con un trattino per diminuire, o sulla freccia verde per le mappe adiacenti.


METAR-TAF: